PWSweather.com
Personal Weather Stations
Station Observations
MICROSHIP
Friday Harbor, Friday Harbor, WA 98250

Friday HarborFriday Harbor, WA 98250

Lat: 48.538, Lon: -123.016

Elevation: 16

Station Type: Ambient Weather WS-1001-WIFI ObserverIP

https://microship.com/

Latest ConditionsUpdated 9:35:00 AM PST Sunday, Nov 19, 2017
Currently Today's Max Today's Min Today's Average
Temperature 46.6°F8.1°C 48.0°F8.9°C 46.2°F7.9°C 47.3°F8.5°C
Dew Point 46.3°F7.9°C 47.7°F8.7°C 45.9°F7.7°C 47.0°F8.3°C
Winds 19.2 mph SE30.9 kmh SE 19.2 mph SE30.9 kmh SE - 10.2 mph 16.4 kmh
Wind Gusts 37.4 mph60.2 kmh 40.0 mph64.4 kmh - -
Humidity 99% 99% 97% 99%
Pressure 29.96 in1014.6 mb 30.24 in1024.0 mb 29.96 in1014.6 mb -
Hour Temp Dew Point Humidity Winds Wind Gusts Pressure Precip Precip Rate Daily Precip Total
09:35 AM 46.6°F8.1°C 46.3°F7.9°C 99% 19.2 mph SE30.9 kmh SE 37.4 mph60.2 kmh 29.96 in1014.6 mb 0.00 in0.0 mm 0.00 in0.0 mm 0.00 in0.0 mm
09:30 AM 46.4°F8.0°C 46.2°F7.9°C 99% 16.0 mph SE25.7 kmh SE 32.4 mph52.1 kmh 29.97 in1014.9 mb 0.00 in0.0 mm 0.00 in0.0 mm 0.00 in0.0 mm
09:25 AM 46.4°F8.0°C 46.1°F7.8°C 99% 16.6 mph SE26.7 kmh SE 27.5 mph44.3 kmh 29.97 in1014.9 mb 0.00 in0.0 mm 0.00 in0.0 mm 0.00 in0.0 mm
09:20 AM 46.4°F8.0°C 46.1°F7.8°C 99% 14.3 mph SE23.0 kmh SE 34.9 mph56.2 kmh 29.98 in1015.2 mb 0.00 in0.0 mm 0.00 in0.0 mm 0.00 in0.0 mm
09:15 AM 46.4°F8.0°C 46.1°F7.8°C 99% 16.0 mph SE25.7 kmh SE 32.4 mph52.1 kmh 29.98 in1015.2 mb 0.00 in0.0 mm 0.00 in0.0 mm 0.00 in0.0 mm
09:10 AM 46.4°F8.0°C 46.1°F7.8°C 99% 15.1 mph SE24.3 kmh SE 30.0 mph48.3 kmh 29.98 in1015.2 mb 0.00 in0.0 mm 0.00 in0.0 mm 0.00 in0.0 mm
09:05 AM 46.4°F8.0°C 46.1°F7.8°C 99% 14.2 mph SE22.9 kmh SE 27.5 mph44.3 kmh 29.99 in1015.6 mb 0.00 in0.0 mm 0.00 in0.0 mm 0.00 in0.0 mm
09:00 AM 46.3°F7.9°C 46.1°F7.8°C 99% 16.9 mph SE27.2 kmh SE 30.0 mph48.3 kmh 29.99 in1015.6 mb 0.00 in0.0 mm 0.00 in0.0 mm 0.00 in0.0 mm
08:55 AM 46.2°F7.9°C 45.9°F7.7°C 99% 14.9 mph SE24.0 kmh SE 34.9 mph56.2 kmh 29.98 in1015.2 mb 0.00 in0.0 mm 0.00 in0.0 mm 0.00 in0.0 mm
08:50 AM 46.2°F7.9°C 45.9°F7.7°C 99% 14.2 mph SE22.9 kmh SE 22.4 mph36.0 kmh 29.99 in1015.6 mb 0.00 in0.0 mm 0.00 in0.0 mm 0.00 in0.0 mm
08:45 AM 46.2°F7.9°C 45.9°F7.7°C 99% 12.1 mph SE19.5 kmh SE 24.8 mph39.9 kmh 30.00 in1015.9 mb 0.00 in0.0 mm 0.00 in0.0 mm 0.00 in0.0 mm
08:40 AM 46.2°F7.9°C 45.9°F7.7°C 99% 12.6 mph SE20.3 kmh SE 27.5 mph44.3 kmh 30.00 in1015.9 mb 0.00 in0.0 mm 0.00 in0.0 mm 0.00 in0.0 mm
08:35 AM 46.2°F7.9°C 45.9°F7.7°C 99% 11.1 mph SSE17.9 kmh SSE 24.8 mph39.9 kmh 30.00 in1015.9 mb 0.00 in0.0 mm 0.00 in0.0 mm 0.00 in0.0 mm
08:30 AM 46.3°F7.9°C 46.0°F7.8°C 99% 16.1 mph SE25.9 kmh SE 27.5 mph44.3 kmh 30.00 in1015.9 mb 0.00 in0.0 mm 0.00 in0.0 mm 0.00 in0.0 mm
08:25 AM 46.4°F8.0°C 46.1°F7.8°C 99% 13.3 mph SE21.4 kmh SE 24.8 mph39.9 kmh 30.01 in1016.3 mb 0.00 in0.0 mm 0.00 in0.0 mm 0.00 in0.0 mm
08:20 AM 46.4°F8.0°C 46.1°F7.8°C 99% 15.2 mph SE24.5 kmh SE 40.0 mph64.4 kmh 30.01 in1016.3 mb 0.00 in0.0 mm 0.00 in0.0 mm 0.00 in0.0 mm
08:15 AM 46.4°F8.0°C 46.1°F7.8°C 99% 11.8 mph SE19.0 kmh SE 34.9 mph56.2 kmh 30.01 in1016.3 mb 0.00 in0.0 mm 0.00 in0.0 mm 0.00 in0.0 mm
08:10 AM 46.5°F8.1°C 46.3°F7.9°C 99% 10.0 mph SE16.1 kmh SE 27.5 mph44.3 kmh 30.01 in1016.3 mb 0.00 in0.0 mm 0.00 in0.0 mm 0.00 in0.0 mm
08:05 AM 46.6°F8.1°C 46.3°F7.9°C 99% 12.0 mph SSE19.3 kmh SSE 24.8 mph39.9 kmh 30.01 in1016.3 mb 0.00 in0.0 mm 0.00 in0.0 mm 0.00 in0.0 mm
08:00 AM 46.6°F8.1°C 46.3°F7.9°C 99% 15.4 mph SE24.8 kmh SE 32.4 mph52.1 kmh 30.02 in1016.6 mb 0.00 in0.0 mm 0.00 in0.0 mm 0.00 in0.0 mm
07:55 AM 46.7°F8.2°C 46.5°F8.1°C 99% 16.1 mph SE25.9 kmh SE 32.4 mph52.1 kmh 30.03 in1016.9 mb 0.00 in0.0 mm 0.00 in0.0 mm 0.00 in0.0 mm
07:50 AM 46.8°F8.2°C 46.5°F8.1°C 99% 17.6 mph SE28.3 kmh SE 34.9 mph56.2 kmh 30.03 in1016.9 mb 0.00 in0.0 mm 0.00 in0.0 mm 0.00 in0.0 mm
07:45 AM 46.8°F8.2°C 46.5°F8.1°C 99% 13.4 mph SE21.6 kmh SE 30.0 mph48.3 kmh 30.02 in1016.6 mb 0.00 in0.0 mm 0.00 in0.0 mm 0.00 in0.0 mm
07:40 AM 46.9°F8.3°C 46.6°F8.1°C 99% 13.7 mph SSE22.0 kmh SSE 30.0 mph48.3 kmh 30.03 in1016.9 mb 0.00 in0.0 mm 0.00 in0.0 mm 0.00 in0.0 mm
07:35 AM 46.9°F8.3°C 46.6°F8.1°C 99% 14.6 mph SSE23.5 kmh SSE 32.4 mph52.1 kmh 30.02 in1016.6 mb 0.00 in0.0 mm 0.00 in0.0 mm 0.00 in0.0 mm
07:30 AM 46.9°F8.3°C 46.4°F8.0°C 98% 13.4 mph SE21.6 kmh SE 27.5 mph44.3 kmh 30.02 in1016.6 mb 0.00 in0.0 mm 0.00 in0.0 mm 0.00 in0.0 mm
07:25 AM 46.9°F8.3°C 46.4°F8.0°C 98% 14.2 mph SE22.9 kmh SE 24.8 mph39.9 kmh 30.03 in1016.9 mb 0.00 in0.0 mm 0.00 in0.0 mm 0.00 in0.0 mm
07:20 AM 46.9°F8.3°C 46.6°F8.1°C 99% 10.6 mph SE17.1 kmh SE 24.8 mph39.9 kmh 30.03 in1016.9 mb 0.00 in0.0 mm 0.00 in0.0 mm 0.00 in0.0 mm
07:15 AM 46.9°F8.3°C 46.6°F8.1°C 99% 12.7 mph SE20.4 kmh SE 30.0 mph48.3 kmh 30.04 in1017.3 mb 0.00 in0.0 mm 0.00 in0.0 mm 0.00 in0.0 mm
07:10 AM 46.9°F8.3°C 46.6°F8.1°C 99% 12.0 mph SE19.3 kmh SE 34.9 mph56.2 kmh 30.04 in1017.3 mb 0.00 in0.0 mm 0.00 in0.0 mm 0.00 in0.0 mm
07:05 AM 46.9°F8.3°C 46.6°F8.1°C 99% 10.6 mph SE17.1 kmh SE 24.8 mph39.9 kmh 30.04 in1017.3 mb 0.00 in0.0 mm 0.00 in0.0 mm 0.00 in0.0 mm
07:00 AM 46.9°F8.3°C 46.6°F8.1°C 99% 10.8 mph SE17.4 kmh SE 27.5 mph44.3 kmh 30.05 in1017.6 mb 0.00 in0.0 mm 0.00 in0.0 mm 0.00 in0.0 mm
06:55 AM 46.9°F8.3°C 46.6°F8.1°C 99% 9.3 mph SE15.0 kmh SE 19.9 mph32.0 kmh 30.05 in1017.6 mb 0.00 in0.0 mm 0.00 in0.0 mm 0.00 in0.0 mm
06:50 AM 46.9°F8.3°C 46.6°F8.1°C 99% 12.0 mph SE19.3 kmh SE 19.9 mph32.0 kmh 30.05 in1017.6 mb 0.00 in0.0 mm 0.00 in0.0 mm 0.00 in0.0 mm
06:45 AM 46.9°F8.3°C 46.6°F8.1°C 99% 9.9 mph SE15.9 kmh SE 19.9 mph32.0 kmh 30.05 in1017.6 mb 0.00 in0.0 mm 0.00 in0.0 mm 0.00 in0.0 mm
06:40 AM 47.1°F8.4°C 46.8°F8.2°C 99% 9.9 mph SE15.9 kmh SE 22.4 mph36.0 kmh 30.05 in1017.6 mb 0.00 in0.0 mm 0.00 in0.0 mm 0.00 in0.0 mm
06:35 AM 47.0°F8.3°C 46.8°F8.2°C 99% 11.7 mph SE18.8 kmh SE 19.9 mph32.0 kmh 30.05 in1017.6 mb 0.00 in0.0 mm 0.00 in0.0 mm 0.00 in0.0 mm
06:30 AM 46.9°F8.3°C 46.6°F8.1°C 99% 11.3 mph SE18.2 kmh SE 22.4 mph36.0 kmh 30.06 in1017.9 mb 0.00 in0.0 mm 0.00 in0.0 mm 0.00 in0.0 mm
06:25 AM 46.9°F8.3°C 46.6°F8.1°C 99% 12.6 mph SE20.3 kmh SE 27.5 mph44.3 kmh 30.06 in1017.9 mb 0.00 in0.0 mm 0.00 in0.0 mm 0.00 in0.0 mm
06:20 AM 46.9°F8.3°C 46.6°F8.1°C 99% 11.2 mph SE18.0 kmh SE 27.5 mph44.3 kmh 30.07 in1018.3 mb 0.00 in0.0 mm 0.00 in0.0 mm 0.00 in0.0 mm
06:15 AM 46.9°F8.3°C 46.6°F8.1°C 99% 12.7 mph SE20.4 kmh SE 19.9 mph32.0 kmh 30.07 in1018.3 mb 0.00 in0.0 mm 0.00 in0.0 mm 0.00 in0.0 mm
06:10 AM 46.9°F8.3°C 46.6°F8.1°C 99% 11.3 mph SE18.2 kmh SE 24.8 mph39.9 kmh 30.08 in1018.6 mb 0.00 in0.0 mm 0.00 in0.0 mm 0.00 in0.0 mm
06:05 AM 47.0°F8.3°C 46.8°F8.2°C 99% 8.1 mph SE13.0 kmh SE 19.9 mph32.0 kmh 30.08 in1018.6 mb 0.00 in0.0 mm 0.00 in0.0 mm 0.00 in0.0 mm
06:00 AM 47.1°F8.4°C 46.8°F8.2°C 99% 8.0 mph SE12.9 kmh SE 24.8 mph39.9 kmh 30.09 in1019.0 mb 0.00 in0.0 mm 0.00 in0.0 mm 0.00 in0.0 mm
05:55 AM 47.1°F8.4°C 46.8°F8.2°C 99% 7.4 mph SSE11.9 kmh SSE 17.4 mph28.0 kmh 30.09 in1019.0 mb 0.00 in0.0 mm 0.00 in0.0 mm 0.00 in0.0 mm
05:50 AM 47.1°F8.4°C 46.7°F8.2°C 98% 11.7 mph SE18.8 kmh SE 24.8 mph39.9 kmh 30.09 in1019.0 mb 0.00 in0.0 mm 0.00 in0.0 mm 0.00 in0.0 mm
05:45 AM 47.3°F8.5°C 46.8°F8.2°C 98% 8.5 mph SSE13.7 kmh SSE 17.4 mph28.0 kmh 30.09 in1019.0 mb 0.00 in0.0 mm 0.00 in0.0 mm 0.00 in0.0 mm
05:40 AM 47.3°F8.5°C 46.7°F8.2°C 98% 9.5 mph SE15.3 kmh SE 22.4 mph36.0 kmh 30.10 in1019.3 mb 0.00 in0.0 mm 0.00 in0.0 mm 0.00 in0.0 mm
05:35 AM 47.3°F8.5°C 46.8°F8.2°C 98% 9.4 mph SE15.1 kmh SE 17.4 mph28.0 kmh 30.11 in1019.6 mb 0.00 in0.0 mm 0.00 in0.0 mm 0.00 in0.0 mm
05:30 AM 47.3°F8.5°C 46.8°F8.2°C 98% 9.5 mph SE15.3 kmh SE 24.8 mph39.9 kmh 30.11 in1019.6 mb 0.00 in0.0 mm 0.00 in0.0 mm 0.00 in0.0 mm
05:25 AM 47.5°F8.6°C 47.0°F8.3°C 98% 10.6 mph SE17.1 kmh SE 22.4 mph36.0 kmh 30.11 in1019.6 mb 0.00 in0.0 mm 0.00 in0.0 mm 0.00 in0.0 mm
05:20 AM 47.5°F8.6°C 47.1°F8.4°C 99% 8.8 mph SE14.2 kmh SE 15.0 mph24.1 kmh 30.11 in1019.6 mb 0.00 in0.0 mm 0.00 in0.0 mm 0.00 in0.0 mm
05:15 AM 47.5°F8.6°C 47.1°F8.4°C 98% 9.1 mph SE14.6 kmh SE 17.4 mph28.0 kmh 30.12 in1020.0 mb 0.00 in0.0 mm 0.00 in0.0 mm 0.00 in0.0 mm
05:10 AM 47.6°F8.7°C 47.1°F8.4°C 98% 8.5 mph SE13.7 kmh SE 22.4 mph36.0 kmh 30.12 in1020.0 mb 0.00 in0.0 mm 0.00 in0.0 mm 0.00 in0.0 mm
05:05 AM 47.7°F8.7°C 47.2°F8.4°C 98% 7.4 mph SE11.9 kmh SE 15.0 mph24.1 kmh 30.13 in1020.3 mb 0.00 in0.0 mm 0.00 in0.0 mm 0.00 in0.0 mm
05:00 AM 47.7°F8.7°C 47.2°F8.4°C 98% 8.3 mph SE13.4 kmh SE 17.4 mph28.0 kmh 30.13 in1020.3 mb 0.00 in0.0 mm 0.00 in0.0 mm 0.00 in0.0 mm
04:55 AM 47.7°F8.7°C 47.0°F8.3°C 97% 9.3 mph SE15.0 kmh SE 19.9 mph32.0 kmh 30.13 in1020.3 mb 0.00 in0.0 mm 0.00 in0.0 mm 0.00 in0.0 mm
04:50 AM 47.7°F8.7°C 46.9°F8.3°C 97% 11.6 mph SE18.7 kmh SE 22.4 mph36.0 kmh 30.13 in1020.3 mb 0.00 in0.0 mm 0.00 in0.0 mm 0.00 in0.0 mm
04:45 AM 47.7°F8.7°C 47.1°F8.4°C 98% 9.6 mph SSE15.4 kmh SSE 17.4 mph28.0 kmh 30.13 in1020.3 mb 0.00 in0.0 mm 0.00 in0.0 mm 0.00 in0.0 mm
04:40 AM 47.7°F8.7°C 47.1°F8.4°C 98% 8.8 mph SE14.2 kmh SE 17.4 mph28.0 kmh 30.13 in1020.3 mb 0.00 in0.0 mm 0.00 in0.0 mm 0.00 in0.0 mm
04:35 AM 47.7°F8.7°C 47.0°F8.3°C 97% 8.2 mph SE13.2 kmh SE 15.0 mph24.1 kmh 30.12 in1020.0 mb 0.00 in0.0 mm 0.00 in0.0 mm 0.00 in0.0 mm
04:30 AM 47.7°F8.7°C 47.1°F8.4°C 98% 6.6 mph SE10.6 kmh SE 12.3 mph19.8 kmh 30.13 in1020.3 mb 0.00 in0.0 mm 0.00 in0.0 mm 0.00 in0.0 mm
04:25 AM 47.7°F8.7°C 47.2°F8.4°C 98% 6.5 mph SE10.5 kmh SE 12.3 mph19.8 kmh 30.13 in1020.3 mb 0.00 in0.0 mm 0.00 in0.0 mm 0.00 in0.0 mm
04:20 AM 47.7°F8.7°C 47.2°F8.4°C 98% 7.0 mph ESE11.3 kmh ESE 19.9 mph32.0 kmh 30.13 in1020.3 mb 0.00 in0.0 mm 0.00 in0.0 mm 0.00 in0.0 mm
04:15 AM 47.7°F8.7°C 47.2°F8.4°C 98% 8.3 mph SE13.4 kmh SE 19.9 mph32.0 kmh 30.13 in1020.3 mb 0.00 in0.0 mm 0.00 in0.0 mm 0.00 in0.0 mm
04:10 AM 47.7°F8.7°C 47.3°F8.5°C 99% 10.7 mph SE17.2 kmh SE 19.9 mph32.0 kmh 30.14 in1020.7 mb 0.00 in0.0 mm 0.00 in0.0 mm 0.00 in0.0 mm
04:05 AM 47.7°F8.7°C 47.4°F8.6°C 99% 5.3 mph SE8.5 kmh SE 12.3 mph19.8 kmh 30.14 in1020.7 mb 0.00 in0.0 mm 0.00 in0.0 mm 0.00 in0.0 mm
04:00 AM 47.7°F8.7°C 47.4°F8.6°C 99% 9.3 mph SE15.0 kmh SE 19.9 mph32.0 kmh 30.14 in1020.7 mb 0.00 in0.0 mm 0.00 in0.0 mm 0.00 in0.0 mm
03:55 AM 47.7°F8.7°C 47.4°F8.6°C 99% 10.7 mph ESE17.2 kmh ESE 19.9 mph32.0 kmh 30.14 in1020.7 mb 0.00 in0.0 mm 0.00 in0.0 mm 0.00 in0.0 mm
03:50 AM 47.7°F8.7°C 47.4°F8.6°C 99% 8.6 mph SE13.8 kmh SE 19.9 mph32.0 kmh 30.14 in1020.7 mb 0.00 in0.0 mm 0.00 in0.0 mm 0.00 in0.0 mm
03:45 AM 47.7°F8.7°C 47.4°F8.6°C 99% 9.6 mph SE15.4 kmh SE 17.4 mph28.0 kmh 30.14 in1020.7 mb 0.00 in0.0 mm 0.00 in0.0 mm 0.00 in0.0 mm
03:40 AM 47.7°F8.7°C 47.4°F8.6°C 99% 6.1 mph SE9.8 kmh SE 17.4 mph28.0 kmh 30.14 in1020.7 mb 0.00 in0.0 mm 0.00 in0.0 mm 0.00 in0.0 mm
03:35 AM 47.7°F8.7°C 47.4°F8.6°C 99% 10.4 mph SE16.7 kmh SE 22.4 mph36.0 kmh 30.14 in1020.7 mb 0.00 in0.0 mm 0.00 in0.0 mm 0.00 in0.0 mm
03:30 AM 47.7°F8.7°C 47.4°F8.6°C 99% 9.4 mph SE15.1 kmh SE 17.4 mph28.0 kmh 30.15 in1021.0 mb 0.00 in0.0 mm 0.00 in0.0 mm 0.00 in0.0 mm
03:25 AM 47.7°F8.7°C 47.4°F8.6°C 99% 8.1 mph SE13.0 kmh SE 15.0 mph24.1 kmh 30.15 in1021.0 mb 0.00 in0.0 mm 0.00 in0.0 mm 0.00 in0.0 mm
03:20 AM 47.8°F8.8°C 47.5°F8.6°C 99% 8.1 mph SE13.0 kmh SE 15.0 mph24.1 kmh 30.16 in1021.3 mb 0.00 in0.0 mm 0.00 in0.0 mm 0.00 in0.0 mm
03:15 AM 47.8°F8.8°C 47.5°F8.6°C 99% 9.5 mph SE15.3 kmh SE 15.0 mph24.1 kmh 30.16 in1021.3 mb 0.00 in0.0 mm 0.00 in0.0 mm 0.00 in0.0 mm
03:10 AM 47.8°F8.8°C 47.5°F8.6°C 99% 10.0 mph SE16.1 kmh SE 17.4 mph28.0 kmh 30.16 in1021.3 mb 0.00 in0.0 mm 0.00 in0.0 mm 0.00 in0.0 mm
03:05 AM 47.8°F8.8°C 47.5°F8.6°C 99% 11.7 mph SE18.8 kmh SE 19.9 mph32.0 kmh 30.16 in1021.3 mb 0.00 in0.0 mm 0.00 in0.0 mm 0.00 in0.0 mm
03:00 AM 47.8°F8.8°C 47.6°F8.7°C 99% 12.0 mph SE19.3 kmh SE 22.4 mph36.0 kmh 30.18 in1022.0 mb 0.00 in0.0 mm 0.00 in0.0 mm 0.00 in0.0 mm
02:55 AM 48.0°F8.9°C 47.7°F8.7°C 99% 9.8 mph SE15.8 kmh SE 15.0 mph24.1 kmh 30.18 in1022.0 mb 0.00 in0.0 mm 0.00 in0.0 mm 0.00 in0.0 mm
02:50 AM 48.0°F8.9°C 47.7°F8.7°C 99% 7.9 mph SE12.7 kmh SE 15.0 mph24.1 kmh 30.19 in1022.4 mb 0.00 in0.0 mm 0.00 in0.0 mm 0.00 in0.0 mm
02:45 AM 48.0°F8.9°C 47.7°F8.7°C 99% 8.4 mph SE13.5 kmh SE 17.4 mph28.0 kmh 30.18 in1022.0 mb 0.00 in0.0 mm 0.00 in0.0 mm 0.00 in0.0 mm
02:40 AM 48.0°F8.9°C 47.7°F8.7°C 99% 10.5 mph ESE16.9 kmh ESE 17.4 mph28.0 kmh 30.18 in1022.0 mb 0.00 in0.0 mm 0.00 in0.0 mm 0.00 in0.0 mm
02:35 AM 48.0°F8.9°C 47.7°F8.7°C 99% 8.1 mph SE13.0 kmh SE 15.0 mph24.1 kmh 30.19 in1022.4 mb 0.00 in0.0 mm 0.00 in0.0 mm 0.00 in0.0 mm
02:30 AM 48.0°F8.9°C 47.7°F8.7°C 99% 9.4 mph ESE15.1 kmh ESE 15.0 mph24.1 kmh 30.19 in1022.4 mb 0.00 in0.0 mm 0.00 in0.0 mm 0.00 in0.0 mm
02:25 AM 47.8°F8.8°C 47.5°F8.6°C 99% 8.5 mph SE13.7 kmh SE 15.0 mph24.1 kmh 30.19 in1022.4 mb 0.00 in0.0 mm 0.00 in0.0 mm 0.00 in0.0 mm
02:20 AM 47.8°F8.8°C 47.5°F8.6°C 99% 8.9 mph SE14.3 kmh SE 15.0 mph24.1 kmh 30.19 in1022.4 mb 0.00 in0.0 mm 0.00 in0.0 mm 0.00 in0.0 mm
02:15 AM 47.8°F8.8°C 47.5°F8.6°C 99% 8.8 mph SE14.2 kmh SE 15.0 mph24.1 kmh 30.19 in1022.4 mb 0.00 in0.0 mm 0.00 in0.0 mm 0.00 in0.0 mm
02:10 AM 47.8°F8.8°C 47.5°F8.6°C 99% 8.1 mph SE13.0 kmh SE 15.0 mph24.1 kmh 30.19 in1022.4 mb 0.00 in0.0 mm 0.00 in0.0 mm 0.00 in0.0 mm
02:05 AM 47.8°F8.8°C 47.5°F8.6°C 99% 7.5 mph SE12.1 kmh SE 15.0 mph24.1 kmh 30.20 in1022.7 mb 0.00 in0.0 mm 0.00 in0.0 mm 0.00 in0.0 mm
02:00 AM 47.8°F8.8°C 47.5°F8.6°C 99% 7.1 mph SE11.4 kmh SE 15.0 mph24.1 kmh 30.20 in1022.7 mb 0.00 in0.0 mm 0.00 in0.0 mm 0.00 in0.0 mm
01:55 AM 47.8°F8.8°C 47.5°F8.6°C 99% 7.9 mph SE12.7 kmh SE 15.0 mph24.1 kmh 30.19 in1022.4 mb 0.00 in0.0 mm 0.00 in0.0 mm 0.00 in0.0 mm
01:50 AM 47.8°F8.8°C 47.5°F8.6°C 99% 8.6 mph ESE13.8 kmh ESE 15.0 mph24.1 kmh 30.20 in1022.7 mb 0.00 in0.0 mm 0.00 in0.0 mm 0.00 in0.0 mm
01:45 AM 47.8°F8.8°C 47.5°F8.6°C 99% 9.8 mph ESE15.8 kmh ESE 19.9 mph32.0 kmh 30.20 in1022.7 mb 0.00 in0.0 mm 0.00 in0.0 mm 0.00 in0.0 mm
01:40 AM 47.8°F8.8°C 47.5°F8.6°C 99% 7.9 mph SE12.7 kmh SE 15.0 mph24.1 kmh 30.21 in1023.0 mb 0.00 in0.0 mm 0.00 in0.0 mm 0.00 in0.0 mm
01:35 AM 47.8°F8.8°C 47.5°F8.6°C 99% 6.7 mph SE10.8 kmh SE 15.0 mph24.1 kmh 30.21 in1023.0 mb 0.00 in0.0 mm 0.00 in0.0 mm 0.00 in0.0 mm
01:30 AM 47.8°F8.8°C 47.5°F8.6°C 99% 7.3 mph SE11.7 kmh SE 15.0 mph24.1 kmh 30.21 in1023.0 mb 0.00 in0.0 mm 0.00 in0.0 mm 0.00 in0.0 mm
01:25 AM 47.8°F8.8°C 47.5°F8.6°C 99% 8.8 mph ESE14.2 kmh ESE 15.0 mph24.1 kmh 30.21 in1023.0 mb 0.00 in0.0 mm 0.00 in0.0 mm 0.00 in0.0 mm
01:20 AM 47.8°F8.8°C 47.5°F8.6°C 99% 7.4 mph SE11.9 kmh SE 17.4 mph28.0 kmh 30.22 in1023.4 mb 0.00 in0.0 mm 0.00 in0.0 mm 0.00 in0.0 mm
01:15 AM 47.8°F8.8°C 47.5°F8.6°C 99% 8.3 mph ESE13.4 kmh ESE 12.3 mph19.8 kmh 30.22 in1023.4 mb 0.00 in0.0 mm 0.00 in0.0 mm 0.00 in0.0 mm
01:10 AM 47.8°F8.8°C 47.5°F8.6°C 99% 7.0 mph SE11.3 kmh SE 15.0 mph24.1 kmh 30.22 in1023.4 mb 0.00 in0.0 mm 0.00 in0.0 mm 0.00 in0.0 mm
01:05 AM 47.8°F8.8°C 47.6°F8.7°C 99% 7.3 mph SE11.7 kmh SE 15.0 mph24.1 kmh 30.22 in1023.4 mb 0.00 in0.0 mm 0.00 in0.0 mm 0.00 in0.0 mm
01:00 AM 48.0°F8.9°C 47.7°F8.7°C 99% 7.7 mph SE12.4 kmh SE 15.0 mph24.1 kmh 30.22 in1023.4 mb 0.00 in0.0 mm 0.00 in0.0 mm 0.00 in0.0 mm
12:55 AM 48.0°F8.9°C 47.7°F8.7°C 99% 5.1 mph SE8.2 kmh SE 12.3 mph19.8 kmh 30.22 in1023.4 mb 0.00 in0.0 mm 0.00 in0.0 mm 0.00 in0.0 mm
12:50 AM 48.0°F8.9°C 47.7°F8.7°C 99% 6.5 mph SE10.5 kmh SE 15.0 mph24.1 kmh 30.22 in1023.4 mb 0.00 in0.0 mm 0.00 in0.0 mm 0.00 in0.0 mm
12:45 AM 48.0°F8.9°C 47.7°F8.7°C 99% 8.1 mph SE13.0 kmh SE 17.4 mph28.0 kmh 30.22 in1023.4 mb 0.00 in0.0 mm 0.00 in0.0 mm 0.00 in0.0 mm
12:40 AM 48.0°F8.9°C 47.7°F8.7°C 99% 6.3 mph SE10.1 kmh SE 12.3 mph19.8 kmh 30.22 in1023.4 mb 0.00 in0.0 mm 0.00 in0.0 mm 0.00 in0.0 mm
12:35 AM 48.0°F8.9°C 47.7°F8.7°C 99% 6.4 mph SE10.3 kmh SE 12.3 mph19.8 kmh 30.23 in1023.7 mb 0.00 in0.0 mm 0.00 in0.0 mm 0.00 in0.0 mm
12:30 AM 48.0°F8.9°C 47.7°F8.7°C 99% 5.7 mph SE9.2 kmh SE 12.3 mph19.8 kmh 30.23 in1023.7 mb 0.00 in0.0 mm 0.00 in0.0 mm 0.00 in0.0 mm
12:25 AM 48.0°F8.9°C 47.7°F8.7°C 99% 7.9 mph SE12.7 kmh SE 17.4 mph28.0 kmh 30.23 in1023.7 mb 0.00 in0.0 mm 0.00 in0.0 mm 0.00 in0.0 mm
12:20 AM 48.0°F8.9°C 47.7°F8.7°C 99% 10.4 mph SE16.7 kmh SE 15.0 mph24.1 kmh 30.23 in1023.7 mb 0.00 in0.0 mm 0.00 in0.0 mm 0.00 in0.0 mm
12:15 AM 48.0°F8.9°C 47.7°F8.7°C 99% 9.5 mph SE15.3 kmh SE 17.4 mph28.0 kmh 30.23 in1023.7 mb 0.00 in0.0 mm 0.00 in0.0 mm 0.00 in0.0 mm
12:10 AM 48.0°F8.9°C 47.7°F8.7°C 99% 7.3 mph SE11.7 kmh SE 12.3 mph19.8 kmh 30.24 in1024.0 mb 0.00 in0.0 mm 0.00 in0.0 mm 0.00 in0.0 mm
12:05 AM 48.0°F8.9°C 47.7°F8.7°C 99% 7.6 mph SE12.2 kmh SE 15.0 mph24.1 kmh 30.24 in1024.0 mb 0.00 in0.0 mm 0.00 in0.0 mm 0.00 in0.0 mm
12:00 AM 48.0°F8.9°C 47.7°F8.7°C 99% 6.5 mph SE10.5 kmh SE 12.3 mph19.8 kmh 30.24 in1024.0 mb 0.00 in0.0 mm 0.00 in0.0 mm 0.00 in0.0 mm